createdAt,value
2018-02-20T00:00:29.149Z,1.20
2018-02-20T00:02:59.103Z,1.23
2018-02-20T00:05:29.027Z,1.26
2018-02-20T00:07:59.089Z,1.20
2018-02-20T00:10:28.901Z,1.33
2018-02-20T00:12:58.525Z,1.36
2018-02-20T00:15:28.311Z,1.46
2018-02-20T00:17:58.352Z,1.41
2018-02-20T00:20:28.884Z,1.49
2018-02-20T00:23:04.743Z,1.31
2018-02-20T00:25:34.644Z,1.39
2018-02-20T00:28:05.541Z,1.44
2018-02-20T00:30:35.801Z,1.48
2018-02-20T00:33:06.675Z,1.42
2018-02-20T00:35:36.602Z,1.51
2018-02-20T00:38:06.274Z,1.51
2018-02-20T00:40:36.576Z,1.53
2018-02-20T00:43:06.687Z,1.49
2018-02-20T00:45:37.056Z,1.48
2018-02-20T00:48:06.665Z,1.53
2018-02-20T00:50:36.802Z,1.53
2018-02-20T00:53:07.947Z,1.44
2018-02-20T00:55:38.093Z,1.47
2018-02-20T00:58:08.270Z,1.49
2018-02-20T01:00:37.930Z,1.52
2018-02-20T01:03:07.888Z,1.52
2018-02-20T01:05:38.134Z,1.55
2018-02-20T01:08:08.261Z,1.45
2018-02-20T01:10:38.172Z,1.52
2018-02-20T01:13:08.507Z,1.57
2018-02-20T01:15:39.264Z,1.58
2018-02-20T01:18:11.638Z,1.53
2018-02-20T01:20:42.152Z,1.53
2018-02-20T01:23:12.282Z,1.55
2018-02-20T01:25:42.061Z,1.65
2018-02-20T01:28:12.115Z,1.61
2018-02-20T01:30:42.022Z,1.63
2018-02-20T01:33:11.983Z,1.57
2018-02-20T01:35:41.597Z,1.53
2018-02-20T01:38:11.453Z,1.55
2018-02-20T01:40:40.909Z,1.57
2018-02-20T01:43:10.574Z,1.59
2018-02-20T01:45:40.890Z,1.48
2018-02-20T01:48:11.573Z,1.57
2018-02-20T01:50:49.327Z,1.49
2018-02-20T01:53:19.441Z,1.47
2018-02-20T01:55:49.092Z,1.42
2018-02-20T01:58:19.175Z,1.64
2018-02-20T02:00:49.191Z,1.62
2018-02-20T02:03:19.285Z,1.36
2018-02-20T02:05:48.998Z,1.39
2018-02-20T02:08:18.711Z,1.46
2018-02-20T02:10:48.975Z,1.30
2018-02-20T02:13:18.949Z,1.46
2018-02-20T02:15:49.089Z,1.50
2018-02-20T02:18:19.283Z,1.39
2018-02-20T02:20:49.746Z,1.39
2018-02-20T02:23:19.920Z,1.34
2018-02-20T02:25:49.911Z,1.29
2018-02-20T02:28:19.655Z,1.23
2018-02-20T02:30:49.914Z,1.06
2018-02-20T02:33:19.863Z,1.18
2018-02-20T02:35:49.610Z,1.22
2018-02-20T02:38:21.007Z,0.50
2018-02-20T02:40:50.886Z,1.05
2018-02-20T02:43:20.556Z,0.94
2018-02-20T02:45:51.440Z,0.99
2018-02-20T02:48:21.407Z,0.91
2018-02-20T02:50:51.374Z,0.80
2018-02-20T02:53:23.141Z,0.85
2018-02-20T02:55:53.034Z,0.76
2018-02-20T02:58:23.120Z,0.72
2018-02-20T03:00:52.903Z,0.68
2018-02-20T03:03:24.225Z,0.56
2018-02-20T03:05:57.266Z,0.54
2018-02-20T03:08:28.409Z,0.57
2018-02-20T03:11:00.066Z,0.50
2018-02-20T03:13:30.458Z,0.48
2018-02-20T03:16:00.298Z,0.33
2018-02-20T03:18:30.227Z,0.30
2018-02-20T03:21:00.394Z,0.28
2018-02-20T03:23:29.986Z,0.08
2018-02-20T03:25:59.974Z,0.14
2018-02-20T03:28:30.244Z,0.16
2018-02-20T03:31:00.162Z,-0.54
2018-02-20T03:33:29.881Z,0.09
2018-02-20T03:36:00.195Z,0.11
2018-02-20T03:38:29.764Z,-0.12
2018-02-20T03:41:00.356Z,0.02
2018-02-20T03:43:30.558Z,0.08
2018-02-20T03:46:00.870Z,-0.26
2018-02-20T03:48:30.457Z,0.06
2018-02-20T03:51:00.327Z,0.00
2018-02-20T03:53:30.001Z,0.06
2018-02-20T03:55:59.858Z,-0.60
2018-02-20T03:58:30.020Z,0.02
2018-02-20T04:01:00.460Z,-0.63
2018-02-20T04:03:30.198Z,-0.06
2018-02-20T04:06:00.339Z,-0.06
2018-02-20T04:08:30.080Z,0.03
2018-02-20T04:10:59.975Z,0.01
2018-02-20T04:13:30.385Z,-0.01
2018-02-20T04:15:59.995Z,-0.12
2018-02-20T04:18:29.549Z,-0.16
2018-02-20T04:20:59.492Z,-0.23
2018-02-20T04:23:29.436Z,-0.27
2018-02-20T04:26:00.380Z,-0.24
2018-02-20T04:28:30.180Z,-0.27
2018-02-20T04:31:00.567Z,-0.35
2018-02-20T04:33:30.665Z,-0.35
2018-02-20T04:36:00.753Z,-0.53
2018-02-20T04:38:30.444Z,-0.41
2018-02-20T04:41:00.181Z,-0.39
2018-02-20T04:43:30.201Z,-0.40
2018-02-20T04:46:00.095Z,-0.37
2018-02-20T04:48:30.366Z,-0.43
2018-02-20T04:51:01.297Z,-1.01
2018-02-20T04:53:31.242Z,-0.54
2018-02-20T04:56:01.021Z,-0.51
2018-02-20T04:58:31.112Z,-0.52
2018-02-20T05:01:01.126Z,-0.51
2018-02-20T05:03:30.671Z,-0.64
2018-02-20T05:06:01.137Z,-0.63
2018-02-20T05:08:30.574Z,-0.49
2018-02-20T05:11:00.302Z,-0.54
2018-02-20T05:13:30.516Z,-0.53
2018-02-20T05:15:59.945Z,-0.50
2018-02-20T05:18:30.047Z,-0.51
2018-02-20T05:21:00.385Z,-0.57
2018-02-20T05:23:30.382Z,-0.56
2018-02-20T05:25:59.875Z,-0.59
2018-02-20T05:28:30.001Z,-0.55
2018-02-20T05:30:59.801Z,-1.14
2018-02-20T05:33:29.450Z,-0.52
2018-02-20T05:35:59.920Z,-0.95
2018-02-20T05:38:29.814Z,-0.55
2018-02-20T05:40:59.817Z,-0.68
2018-02-20T05:43:30.306Z,-0.51
2018-02-20T05:46:00.083Z,-0.52
2018-02-20T05:48:29.851Z,-0.52
2018-02-20T05:51:00.523Z,-0.62
2018-02-20T05:53:30.394Z,-0.50
2018-02-20T05:56:00.109Z,-0.41
2018-02-20T05:58:29.931Z,-0.33
2018-02-20T06:00:59.570Z,-0.27
2018-02-20T06:03:29.069Z,-0.22
2018-02-20T06:06:03.049Z,-0.49
2018-02-20T06:08:32.984Z,-0.11
2018-02-20T06:11:03.153Z,-0.30
2018-02-20T06:13:33.618Z,-0.07
2018-02-20T06:16:03.624Z,-0.14
2018-02-20T06:18:34.845Z,-0.04
2018-02-20T06:21:04.959Z,0.09
2018-02-20T06:23:35.623Z,0.16
2018-02-20T06:26:05.325Z,0.22
2018-02-20T06:28:35.741Z,0.31
2018-02-20T06:31:06.202Z,0.35
2018-02-20T06:33:36.017Z,0.47
2018-02-20T06:36:08.152Z,0.58
2018-02-20T06:38:38.066Z,0.71
2018-02-20T06:41:07.567Z,0.72
2018-02-20T06:43:37.647Z,0.88
2018-02-20T06:46:08.516Z,0.97
2018-02-20T06:48:38.549Z,1.05
2018-02-20T06:51:08.497Z,1.12
2018-02-20T06:53:38.149Z,1.27
2018-02-20T06:56:07.795Z,1.23
2018-02-20T06:58:38.098Z,1.20
2018-02-20T07:01:08.066Z,1.19
2018-02-20T07:03:37.763Z,1.31
2018-02-20T07:06:08.146Z,1.39
2018-02-20T07:08:37.605Z,1.46
2018-02-20T07:11:07.159Z,1.53
2018-02-20T07:13:37.317Z,1.59
2018-02-20T07:16:06.723Z,1.60
2018-02-20T07:18:36.433Z,1.67
2018-02-20T07:21:06.784Z,1.70
2018-02-20T07:23:36.310Z,1.85
2018-02-20T07:26:07.493Z,1.88
2018-02-20T07:28:37.268Z,1.99
2018-02-20T07:31:07.087Z,2.13
2018-02-20T07:33:37.409Z,2.19
2018-02-20T07:36:07.638Z,2.32
2018-02-20T07:38:37.350Z,2.45
2018-02-20T07:41:07.406Z,2.72
2018-02-20T07:43:37.447Z,2.75
2018-02-20T07:46:07.194Z,2.68
2018-02-20T07:48:37.071Z,2.72
2018-02-20T07:51:09.035Z,2.59
2018-02-20T07:53:40.265Z,2.78
2018-02-20T07:56:09.987Z,2.64
2018-02-20T07:58:39.733Z,2.84
2018-02-20T08:01:09.156Z,2.90
2018-02-20T08:03:39.145Z,3.07
2018-02-20T08:06:08.735Z,3.15
2018-02-20T08:08:38.162Z,3.03
2018-02-20T08:11:09.035Z,3.01
2018-02-20T08:13:39.452Z,2.74
2018-02-20T08:16:09.620Z,2.64
2018-02-20T08:18:39.444Z,2.78
2018-02-20T08:21:09.154Z,2.83
2018-02-20T08:23:40.135Z,2.61
2018-02-20T08:26:11.682Z,2.46
2018-02-20T08:28:41.126Z,2.51
2018-02-20T08:31:11.013Z,2.39
2018-02-20T08:33:41.369Z,2.58
2018-02-20T08:36:11.364Z,2.83
2018-02-20T08:38:41.493Z,2.99
2018-02-20T08:41:13.088Z,2.94
2018-02-20T08:43:42.492Z,2.82
2018-02-20T08:46:11.994Z,2.98
2018-02-20T08:48:41.901Z,3.15
2018-02-20T08:51:11.621Z,3.05
2018-02-20T08:53:41.033Z,3.07
2018-02-20T08:56:11.188Z,3.12
2018-02-20T08:58:41.056Z,3.27
2018-02-20T09:01:11.733Z,3.37
2018-02-20T09:03:41.436Z,3.32
2018-02-20T09:06:11.067Z,3.02
2018-02-20T09:08:41.050Z,3.10
2018-02-20T09:11:10.773Z,3.42
2018-02-20T09:13:40.402Z,3.52
2018-02-20T09:16:10.177Z,3.50
2018-02-20T09:18:39.584Z,3.70
2018-02-20T09:21:08.996Z,3.63
2018-02-20T09:23:39.817Z,3.67
2018-02-20T09:26:09.645Z,3.91
2018-02-20T09:28:39.395Z,3.96
2018-02-20T09:31:09.065Z,3.97
2018-02-20T09:33:38.497Z,4.21
2018-02-20T09:36:08.597Z,4.50
2018-02-20T09:38:38.058Z,4.55
2018-02-20T09:41:07.658Z,4.58
2018-02-20T09:43:37.210Z,4.34
2018-02-20T09:46:06.980Z,4.37
2018-02-20T09:48:36.666Z,3.95
2018-02-20T09:51:06.280Z,3.40
2018-02-20T09:53:35.765Z,2.91
2018-02-20T09:56:05.672Z,2.60
2018-02-20T09:58:35.368Z,2.81
2018-02-20T10:01:05.584Z,2.87
2018-02-20T10:03:35.101Z,3.12
2018-02-20T10:06:04.729Z,3.32
2018-02-20T10:08:34.406Z,3.78
2018-02-20T10:11:04.386Z,4.09
2018-02-20T10:13:34.071Z,4.41
2018-02-20T10:16:04.275Z,5.00
2018-02-20T10:18:33.911Z,5.23
2018-02-20T10:21:03.723Z,5.43
2018-02-20T10:23:33.521Z,5.28
2018-02-20T10:26:03.676Z,5.44
2018-02-20T10:28:33.288Z,5.95
2018-02-20T10:31:03.348Z,5.74
2018-02-20T10:33:34.034Z,5.41
2018-02-20T10:36:04.166Z,5.38
2018-02-20T10:38:34.054Z,5.32
2018-02-20T10:41:03.987Z,4.98
2018-02-20T10:43:33.615Z,4.52
2018-02-20T10:46:04.014Z,4.40
2018-02-20T10:48:33.600Z,4.75
2018-02-20T10:51:04.253Z,4.94
2018-02-20T10:53:33.707Z,5.19
2018-02-20T10:56:03.591Z,5.26
2018-02-20T10:58:33.057Z,5.66
2018-02-20T11:01:02.502Z,5.72
2018-02-20T11:03:32.200Z,5.33
2018-02-20T11:06:01.996Z,5.00
2018-02-20T11:08:32.111Z,4.95
2018-02-20T11:11:02.902Z,5.21
2018-02-20T11:13:32.957Z,5.36
2018-02-20T11:16:02.829Z,5.29
2018-02-20T11:18:32.638Z,5.81
2018-02-20T11:21:02.484Z,5.65
2018-02-20T11:23:32.083Z,5.59
2018-02-20T11:26:01.820Z,5.50
2018-02-20T11:28:31.811Z,5.46
2018-02-20T11:31:01.619Z,5.07
2018-02-20T11:33:31.412Z,5.30
2018-02-20T11:36:01.331Z,5.14
2018-02-20T11:38:31.173Z,4.83
2018-02-20T11:41:01.216Z,4.70
2018-02-20T11:43:30.671Z,4.83
2018-02-20T11:46:00.206Z,4.82
2018-02-20T11:48:29.656Z,4.95
2018-02-20T11:50:59.293Z,5.01
2018-02-20T11:53:28.805Z,4.99
2018-02-20T11:55:58.768Z,4.81
2018-02-20T11:58:28.966Z,4.71
2018-02-20T12:01:00.256Z,4.67
2018-02-20T12:03:30.928Z,4.61
2018-02-20T12:06:01.063Z,4.58
2018-02-20T12:08:30.614Z,4.45
2018-02-20T12:11:00.932Z,4.32
2018-02-20T12:13:30.440Z,3.94
2018-02-20T12:16:00.987Z,4.20
2018-02-20T12:58:44.336Z,4.14
2018-02-20T13:01:25.500Z,3.77
2018-02-20T13:04:05.610Z,4.02
2018-02-20T13:06:35.570Z,4.08
2018-02-20T13:09:05.358Z,3.63
2018-02-20T13:11:35.148Z,3.67
2018-02-20T13:14:05.139Z,3.59
2018-02-20T13:16:34.707Z,3.63
2018-02-20T13:19:04.229Z,3.68
2018-02-20T13:21:34.123Z,3.41
2018-02-20T13:24:03.998Z,3.38
2018-02-20T13:26:33.542Z,3.43
2018-02-20T13:29:03.565Z,3.44
2018-02-20T13:31:33.312Z,3.26
2018-02-20T13:34:02.905Z,3.60
2018-02-20T13:36:33.324Z,3.53
2018-02-20T13:39:03.986Z,3.34
2018-02-20T13:41:33.742Z,3.25
2018-02-20T13:44:03.384Z,3.21
2018-02-20T13:46:34.805Z,2.99
2018-02-20T13:49:05.046Z,3.33
2018-02-20T13:51:35.384Z,3.45
2018-02-20T13:54:05.436Z,3.27
2018-02-20T13:56:35.045Z,3.42
2018-02-20T13:59:05.181Z,3.26
2018-02-20T14:01:35.326Z,3.19
2018-02-20T14:04:05.756Z,3.39
2018-02-20T14:06:35.602Z,3.54
2018-02-20T14:09:05.714Z,3.36
2018-02-20T14:11:35.500Z,3.58
2018-02-20T14:14:05.500Z,3.68
2018-02-20T14:16:35.162Z,3.81
2018-02-20T14:19:05.060Z,3.73
2018-02-20T14:21:34.920Z,3.66
2018-02-20T14:24:04.427Z,3.57
2018-02-20T14:26:34.246Z,3.49
2018-02-20T14:29:03.923Z,3.54
2018-02-20T14:31:33.744Z,3.64
2018-02-20T14:34:04.089Z,3.69
2018-02-20T14:36:33.642Z,3.58
2018-02-20T14:39:03.905Z,3.37
2018-02-20T14:41:34.262Z,3.38
2018-02-20T14:44:03.754Z,3.34
2018-02-20T14:46:33.294Z,3.37
2018-02-20T14:49:03.440Z,3.34
2018-02-20T14:51:32.967Z,3.33
2018-02-20T14:54:02.783Z,3.42
2018-02-20T14:56:32.521Z,3.38
2018-02-20T14:59:02.389Z,3.42
2018-02-20T15:01:32.026Z,3.59
2018-02-20T15:04:02.315Z,3.35
2018-02-20T15:06:32.033Z,3.53
2018-02-20T15:09:02.680Z,3.68
2018-02-20T15:11:32.559Z,3.65
2018-02-20T15:14:02.126Z,3.74
2018-02-20T15:16:32.069Z,3.85
2018-02-20T15:19:02.020Z,3.81
2018-02-20T15:21:31.503Z,3.70
2018-02-20T15:24:01.148Z,3.79
2018-02-20T15:26:30.976Z,3.74
2018-02-20T15:29:00.455Z,3.82
2018-02-20T15:31:30.061Z,3.65
2018-02-20T15:33:59.816Z,3.58
2018-02-20T15:36:29.344Z,3.60
2018-02-20T15:38:58.782Z,3.42
2018-02-20T15:41:28.646Z,3.45
2018-02-20T15:43:58.056Z,3.62
2018-02-20T15:46:27.587Z,3.49
2018-02-20T15:48:57.478Z,3.29
2018-02-20T15:51:27.449Z,3.30
2018-02-20T15:53:56.937Z,3.34
2018-02-20T15:56:26.913Z,3.36
2018-02-20T15:58:56.370Z,3.24
2018-02-20T16:01:26.442Z,3.23
2018-02-20T16:03:56.402Z,3.00
2018-02-20T16:06:25.991Z,3.10
2018-02-20T16:08:55.637Z,3.11
2018-02-20T16:11:26.391Z,3.09
2018-02-20T16:13:55.990Z,3.18
2018-02-20T16:16:27.009Z,3.06
2018-02-20T16:18:57.357Z,3.16
2018-02-20T16:21:27.804Z,3.24
2018-02-20T16:23:57.341Z,3.28
2018-02-20T16:26:27.673Z,3.34
2018-02-20T16:28:58.001Z,3.37
2018-02-20T16:31:28.609Z,3.14
2018-02-20T16:33:59.505Z,3.19
2018-02-20T16:36:28.991Z,3.32
2018-02-20T16:38:59.555Z,3.26
2018-02-20T16:41:30.110Z,3.44
2018-02-20T16:43:59.648Z,2.98
2018-02-20T16:46:29.952Z,3.21
2018-02-20T16:48:59.436Z,3.15
2018-02-20T16:51:28.873Z,3.18
2018-02-20T16:53:58.773Z,3.31
2018-02-20T16:56:28.330Z,3.28
2018-02-20T16:58:58.394Z,3.31
2018-02-20T17:01:27.999Z,3.26
2018-02-20T17:03:57.485Z,3.17
2018-02-20T17:06:27.542Z,3.11
2018-02-20T17:08:57.546Z,3.13
2018-02-20T17:11:27.036Z,3.24
2018-02-20T17:13:57.243Z,3.10
2018-02-20T17:16:26.874Z,3.27
2018-02-20T17:18:56.383Z,3.03
2018-02-20T17:21:25.813Z,3.31
2018-02-20T17:23:55.591Z,3.33
2018-02-20T17:26:25.466Z,3.23
2018-02-20T17:28:54.979Z,3.18
2018-02-20T17:31:24.417Z,3.09
2018-02-20T17:33:55.045Z,3.08
2018-02-20T17:36:24.523Z,3.29
2018-02-20T17:38:54.293Z,3.42
2018-02-20T17:41:24.482Z,2.95
2018-02-20T17:43:54.054Z,3.45
2018-02-20T17:46:24.027Z,3.49
2018-02-20T17:48:53.778Z,3.34
2018-02-20T17:51:23.615Z,3.37
2018-02-20T17:53:53.595Z,3.20
2018-02-20T17:56:23.010Z,3.33
2018-02-20T17:58:52.482Z,3.35
2018-02-20T18:01:22.063Z,3.28
2018-02-20T18:03:51.489Z,3.27
2018-02-20T18:06:20.936Z,3.17
2018-02-20T18:08:54.817Z,3.15
2018-02-20T18:11:29.406Z,2.94
2018-02-20T18:13:58.971Z,3.03
2018-02-20T18:16:28.579Z,2.87
2018-02-20T18:18:59.061Z,3.11
2018-02-20T18:21:29.136Z,3.03
2018-02-20T18:24:01.150Z,2.50
2018-02-20T18:26:31.188Z,3.00
2018-02-20T18:29:00.724Z,3.02
2018-02-20T18:31:31.704Z,3.06
2018-02-20T18:34:01.168Z,3.10
2018-02-20T18:36:30.653Z,3.24
2018-02-20T18:39:01.347Z,3.18
2018-02-20T18:41:30.807Z,3.31
2018-02-20T18:44:00.302Z,3.37
2018-02-20T18:46:29.984Z,3.39
2018-02-20T18:48:59.518Z,3.46
2018-02-20T18:51:29.133Z,3.47
2018-02-20T18:53:58.692Z,3.19
2018-02-20T18:56:28.246Z,3.18
2018-02-20T18:58:58.093Z,3.28
2018-02-20T19:01:27.911Z,3.02
2018-02-20T19:03:58.407Z,3.14
2018-02-20T19:06:27.971Z,3.28
2018-02-20T19:08:58.556Z,3.02
2018-02-20T19:11:29.142Z,3.08
2018-02-20T19:13:58.984Z,3.03
2018-02-20T19:16:28.573Z,3.04
2018-02-20T19:18:58.483Z,3.27
2018-02-20T19:21:29.420Z,3.19
2018-02-20T19:23:59.225Z,3.21
2018-02-20T19:26:28.854Z,3.24
2018-02-20T19:28:58.616Z,3.28
2018-02-20T19:31:28.084Z,3.16
2018-02-20T19:33:57.778Z,3.02
2018-02-20T19:36:28.207Z,3.06
2018-02-20T19:38:57.964Z,2.98
2018-02-20T19:41:27.570Z,3.00
2018-02-20T19:44:00.964Z,3.21
2018-02-20T19:46:30.874Z,2.92
2018-02-20T19:49:01.139Z,3.16
2018-02-20T19:51:30.589Z,3.07
2018-02-20T19:54:00.895Z,2.72
2018-02-20T19:56:30.607Z,3.05
2018-02-20T19:59:00.168Z,3.09
2018-02-20T20:01:30.371Z,2.59
2018-02-20T20:04:00.811Z,2.61
2018-02-20T20:06:31.599Z,2.75
2018-02-20T20:09:01.496Z,3.12
2018-02-20T20:11:31.320Z,2.97
2018-02-20T20:14:01.000Z,2.91
2018-02-20T20:16:30.801Z,2.87
2018-02-20T20:19:01.109Z,3.05
2018-02-20T20:21:31.048Z,2.96
2018-02-20T20:24:00.698Z,3.16
2018-02-20T20:26:30.786Z,3.13
2018-02-20T20:29:00.463Z,2.90
2018-02-20T20:31:29.901Z,3.03
2018-02-20T20:34:00.872Z,2.98
2018-02-20T20:36:30.398Z,2.98
2018-02-20T20:39:00.356Z,2.75
2018-02-20T20:41:29.945Z,3.08
2018-02-20T20:44:01.902Z,3.12
2018-02-20T20:46:31.612Z,3.12
2018-02-20T20:49:02.710Z,3.01
2018-02-20T20:51:32.249Z,2.96
2018-02-20T20:54:02.582Z,3.00
2018-02-20T20:56:32.536Z,2.98
2018-02-20T20:59:02.732Z,3.03
2018-02-20T21:01:32.941Z,2.87
2018-02-20T21:04:04.313Z,2.90
2018-02-20T21:06:33.975Z,3.01
2018-02-20T21:09:04.308Z,2.91
2018-02-20T21:11:34.357Z,2.97
2018-02-20T21:14:05.637Z,3.05
2018-02-20T21:16:35.623Z,3.28
2018-02-20T21:19:05.568Z,3.33
2018-02-20T21:21:36.516Z,2.86
2018-02-20T21:24:06.543Z,3.08
2018-02-20T21:26:36.222Z,3.07
2018-02-20T21:29:06.619Z,3.16
2018-02-20T21:31:37.504Z,3.10
2018-02-20T21:34:07.543Z,3.09
2018-02-20T21:36:37.892Z,3.02
2018-02-20T21:39:07.757Z,3.05
2018-02-20T21:41:37.833Z,3.27
2018-02-20T21:44:07.698Z,3.29
2018-02-20T21:46:37.651Z,3.15
2018-02-20T21:49:07.813Z,3.24
2018-02-20T21:51:38.166Z,3.22
2018-02-20T21:54:08.872Z,3.36
2018-02-20T21:56:39.317Z,3.41
2018-02-20T21:59:09.654Z,3.44
2018-02-20T22:01:40.071Z,3.47
2018-02-20T22:04:09.651Z,3.38
2018-02-20T22:06:39.476Z,3.39
2018-02-20T22:09:09.245Z,3.42
2018-02-20T22:11:39.726Z,3.30
2018-02-20T22:14:09.317Z,3.40
2018-02-20T22:16:38.793Z,3.35
2018-02-20T22:19:10.187Z,3.23
2018-02-20T22:21:40.014Z,3.25
2018-02-20T22:24:10.273Z,3.25
2018-02-20T22:26:40.494Z,3.15
2018-02-20T22:29:10.808Z,3.17
2018-02-20T22:31:40.959Z,3.07
2018-02-20T22:34:12.582Z,3.11
2018-02-20T22:36:42.619Z,3.11
2018-02-20T22:39:12.549Z,2.90
2018-02-20T22:41:42.980Z,2.86
2018-02-20T22:44:12.903Z,2.80
2018-02-20T22:46:42.519Z,2.52
2018-02-20T22:49:12.416Z,2.34
2018-02-20T22:51:42.096Z,2.18
2018-02-20T22:54:12.147Z,2.16
2018-02-20T22:56:42.746Z,1.86
2018-02-20T22:59:12.525Z,1.96
2018-02-20T23:01:42.588Z,1.82
2018-02-20T23:04:12.429Z,1.75
2018-02-20T23:06:42.063Z,1.57
2018-02-20T23:09:12.143Z,1.60
2018-02-20T23:11:48.685Z,1.49
2018-02-20T23:14:18.252Z,1.38
2018-02-20T23:16:48.867Z,1.23
2018-02-20T23:19:27.582Z,1.24
2018-02-20T23:21:59.605Z,1.22
2018-02-20T23:24:29.064Z,1.18
2018-02-20T23:26:59.540Z,1.02
2018-02-20T23:29:31.058Z,0.89
2018-02-20T23:32:01.207Z,1.14
2018-02-20T23:34:32.980Z,0.95
2018-02-20T23:37:05.214Z,0.96
2018-02-20T23:39:43.065Z,0.76
2018-02-20T23:42:13.940Z,0.85
2018-02-20T23:44:44.158Z,0.72
2018-02-20T23:47:14.383Z,0.77
2018-02-20T23:49:44.284Z,0.73
2018-02-20T23:52:16.221Z,0.63
2018-02-20T23:54:49.400Z,0.67
2018-02-20T23:59:48.510Z,0.57
